Latest Weather Observations for Stawell

IDV60801

Issued at 10:12 pm EST Thursday 20 June 2019 (issued every 10 minutes, with the page automatically refreshed every 10 minutes)

About weather observations | Map of weather stations | Latest weather observations for VIC | Other Formats
Station Details ID: 079105 Name: STAWELL AERODROME Lat: -37.07 Lon: 142.74 Height: 235.36 m
Data from the previous 72 hours. | See also: Recent months at Stawell
Date/Time
EST
Temp
°C
App
Temp
°C
Dew
Point
°C
Rel
Hum
%
Delta-T
°C
Wind Press
QNH
hPa
Press
MSL
hPa
Rain since
9am
mm
Dir  Spd
km/h
Gust
km/h
Spd
kts
Gust
kts
20/10:00pm 4.5 1.2 2.5 87 0.8 SW 9 13 5 7 1027.7 1028.1 0.0
20/09:30pm 6.1 2.8 2.7 79 1.4 SW 9 15 5 8 1027.5 1027.9 0.0
20/09:00pm 6.4 2.9 3.4 81 1.3 SSW 11 15 6 8 1027.3 1027.7 0.0
20/08:30pm 6.8 2.8 2.9 76 1.6 SSW 13 17 7 9 1027.3 1027.7 0.0
20/08:00pm 6.9 3.0 3.2 77 1.6 SSW 13 20 7 11 1027.2 1027.6 0.0
20/07:30pm 7.1 3.1 2.8 74 1.8 SSW 13 20 7 11 1027.0 1027.4 0.0
20/07:00pm 7.4 2.9 2.3 70 2.1 SSW 15 20 8 11 1026.5 1026.9 0.0
20/06:30pm 6.4 2.7 2.1 74 1.8 SSW 11 17 6 9 1026.2 1026.6 0.0
20/06:00pm 6.9 3.6 2.2 72 1.9 SW 9 9 5 5 1026.0 1026.4 0.0
20/05:30pm 7.2 3.9 2.5 72 2.0 SW 9 11 5 6 1025.7 1026.1 0.0
20/05:00pm 8.7 6.1 3.1 68 2.4 WSW 6 9 3 5 1025.4 1025.8 0.0
20/04:30pm 9.2 6.4 2.3 62 2.9 W 6 7 3 4 1025.2 1025.6 0.0
20/04:00pm 8.7 5.7 2.3 64 2.7 SW 7 9 4 5 1025.1 1025.5 0.0
20/03:30pm 9.3 5.9 1.9 60 3.1 SSW 9 13 5 7 1025.0 1025.4 0.0
20/03:00pm 9.8 7.3 3.5 65 2.8 SSW 6 7 3 4 1025.0 1025.4 0.0
20/02:30pm 8.5 5.5 4.3 75 1.9 SW 9 13 5 7 1025.1 1025.5 0.0
20/02:00pm 10.6 7.2 1.9 55 3.7 S 9 17 5 9 1025.0 1025.4 0.0
20/01:30pm 10.4 6.1 1.0 52 3.9 S 13 19 7 10 1025.1 1025.5 0.0
20/01:00pm 9.7 6.6 1.4 56 3.5 SSW 7 11 4 6 1025.5 1025.9 0.0
20/12:30pm 8.4 5.9 3.7 72 2.1 SSW 6 9 3 5 1026.0 1026.4 0.0
20/12:00pm 8.5 5.1 3.8 72 2.0 SW 11 15 6 8 1026.3 1026.7 0.0
20/11:30am 8.8 5.6 3.2 68 2.4 WSW 9 15 5 8 1026.5 1026.9 0.0
20/11:00am 8.6 6.3 4.6 76 1.8 NE 6 7 3 4 1026.6 1027.0 0.0
20/10:30am 7.9 5.4 5.0 82 1.3 NNW 7 9 4 5 1026.7 1027.1 0.0
20/10:00am 6.2 3.9 5.6 96 0.3 WNW 7 7 4 4 1026.6 1027.0 0.0
20/09:30am 5.2 4.1 4.9 98 0.1 CALM 0 0 0 0 1026.5 1026.9 0.0
20/09:00am 4.8 3.6 4.7 99 0.0 CALM 0 0 0 0 1026.4 1026.8 0.0
20/08:30am 4.4 1.8 4.3 99 0.0 W 7 9 4 5 1026.5 1026.9 0.0
20/08:00am 4.1 2.7 3.8 98 0.1 CALM 0 4 0 2 1026.2 1026.6 0.0
20/07:30am 4.0 2.6 3.7 98 0.1 CALM 0 0 0 0 1026.1 1026.5 0.0
20/07:00am 4.0 2.6 3.7 98 0.1 CALM 0 0 0 0 1025.9 1026.3 0.0
20/06:30am 4.6 3.3 4.3 98 0.1 CALM 0 0 0 0 1025.8 1026.2 0.0
20/06:00am 4.5 3.2 4.2 98 0.1 CALM 0 0 0 0 1025.7 1026.1 0.0
20/05:30am 4.4 3.1 4.1 98 0.1 CALM 0 6 0 3 1025.5 1025.9 0.0
20/05:00am 4.3 3.0 4.0 98 0.1 CALM 0 0 0 0 1025.4 1025.8 0.0
20/04:30am 4.3 3.0 4.0 98 0.1 CALM 0 0 0 0 1025.5 1025.9 0.0
20/04:00am 3.8 2.0 3.4 97 0.2 ESE 2 6 1 3 1025.7 1026.1 0.0
20/03:30am 3.7 2.3 3.3 97 0.2 CALM 0 0 0 0 1025.8 1026.2 0.0
20/03:00am 3.9 2.5 3.3 96 0.2 CALM 0 0 0 0 1025.9 1026.3 0.0
20/02:30am 3.6 2.0 2.7 94 0.4 CALM 0 0 0 0 1025.9 1026.3 0.0
20/02:00am 4.3 2.9 3.4 94 0.4 CALM 0 0 0 0 1025.8 1026.2 0.0
20/01:30am 4.8 3.1 3.8 93 0.4 SSW 2 7 1 4 1025.8 1026.2 0.0
20/01:00am 5.4 4.1 4.2 92 0.5 CALM 0 0 0 0 1025.9 1026.3 0.0
20/12:30am 5.6 4.4 4.6 93 0.4 CALM 0 0 0 0 1026.1 1026.5 0.0
20/12:00am 5.6 4.3 4.2 91 0.6 CALM 0 6 0 3 1026.1 1026.5 0.0
 
Date/Time
EST
Temp
°C
App
Temp
°C
Dew
Point
°C
Rel
Hum
%
Delta-T
°C
Wind Press
QNH
hPa
Press
MSL
hPa
Rain since
9am
mm
Dir  Spd
km/h
Gust
km/h
Spd
kts
Gust
kts
19/11:30pm 5.9 4.2 4.1 88 0.8 SSW 2 7 1 4 1026.3 1026.7 0.0
19/11:00pm 6.0 4.7 4.2 88 0.8 CALM 0 0 0 0 1026.4 1026.8 0.0
19/10:30pm 6.6 4.3 4.6 87 0.9 S 6 9 3 5 1026.4 1026.8 0.0
19/10:00pm 6.0 4.4 4.3 89 0.7 WSW 2 7 1 4 1026.5 1026.9 0.0
19/09:30pm 6.1 3.7 4.1 87 0.9 SSW 6 7 3 4 1026.5 1026.9 0.0
19/09:00pm 6.4 4.4 4.4 87 0.9 S 4 6 2 3 1026.5 1026.9 0.0
19/08:30pm 5.8 3.3 3.8 87 0.9 WSW 6 7 3 4 1026.6 1027.0 0.0
19/08:00pm 6.4 3.6 3.4 81 1.3 WSW 7 7 4 4 1026.5 1026.9 0.0
19/07:30pm 6.1 3.4 3.6 84 1.1 WSW 7 9 4 5 1026.5 1026.9 0.0
19/07:00pm 5.8 3.1 3.6 86 0.9 W 7 9 4 5 1026.4 1026.8 0.0
19/06:30pm 5.7 4.4 3.9 88 0.8 CALM 0 0 0 0 1026.2 1026.6 0.0
19/06:00pm 6.2 4.9 4.2 87 0.9 CALM 0 0 0 0 1026.2 1026.6 0.0
19/05:30pm 6.4 5.1 3.9 84 1.1 CALM 0 0 0 0 1026.2 1026.6 0.0
19/05:00pm 7.8 5.6 3.3 73 1.9 SSE 4 6 2 3 1026.1 1026.5 0.0
19/04:30pm 9.1 5.8 2.7 64 2.8 SSE 9 11 5 6 1026.0 1026.4 0.0
19/04:00pm 9.5 6.3 2.8 63 2.9 SE 9 11 5 6 1025.8 1026.2 0.0
19/03:30pm 9.7 5.8 3.2 64 2.8 SSE 13 15 7 8 1025.8 1026.2 0.0
19/03:00pm 9.8 5.7 2.2 59 3.2 S 13 17 7 9 1025.9 1026.3 0.0
19/02:30pm 9.6 6.3 2.7 62 3.0 SSW 9 13 5 7 1026.0 1026.4 0.0
19/02:00pm 9.8 5.7 2.4 60 3.2 SW 13 15 7 8 1026.1 1026.5 0.0
19/01:30pm 9.9 6.3 3.0 62 3.0 SSW 11 17 6 9 1026.3 1026.7 0.0
19/01:00pm 9.3 6.2 3.5 67 2.5 SSW 9 15 5 8 1026.6 1027.0 0.0
19/12:30pm 9.8 6.3 3.3 64 2.9 SW 11 17 6 9 1026.8 1027.2 0.0
19/12:00pm 9.4 5.7 2.3 61 3.0 S 11 17 6 9 1027.1 1027.5 0.0
19/11:30am 8.8 4.8 2.6 65 2.7 SSW 13 19 7 10 1027.4 1027.8 0.0
19/11:00am 8.6 5.4 3.2 69 2.3 SW 9 13 5 7 1027.5 1027.9 0.0
19/10:30am 7.9 5.3 4.3 78 1.6 WSW 7 13 4 7 1027.5 1027.9 0.0
19/10:00am 6.4 3.8 4.2 86 0.9 WSW 7 11 4 6 1027.2 1027.6 0.0
19/09:30am 5.4 4.3 5.1 98 0.1 CALM 0 0 0 0 1027.0 1027.4 0.0
19/09:00am 3.9 1.8 3.8 99 0.0 N 4 7 2 4 1026.6 1027.0 1.2
19/08:30am 3.4 0.8 3.3 99 0.0 E 6 7 3 4 1026.2 1026.6 1.2
19/08:00am 1.2 -0.6 1.1 99 0.0 CALM 0 0 0 0 1026.0 1026.4 1.2
19/07:30am 0.4 -2.7 0.3 99 0.0 ENE 6 7 3 4 1025.7 1026.1 1.2
19/07:00am 1.0 -2.0 0.9 99 0.0 E 6 7 3 4 1025.4 1025.8 1.2
19/06:30am 0.4 -2.7 0.1 98 0.1 ESE 6 9 3 5 1025.1 1025.5 1.2
19/06:00am 0.7 -1.2 0.4 98 0.1 CALM 0 0 0 0 1025.0 1025.4 1.2
19/05:30am 0.8 -1.1 0.5 98 0.1 CALM 0 0 0 0 1024.8 1025.1 1.2
19/05:00am 1.3 -0.5 1.0 98 0.1 CALM 0 6 0 3 1024.6 1024.9 1.2
19/04:30am 1.6 -0.2 1.3 98 0.1 CALM 0 0 0 0 1024.6 1024.9 1.2
19/04:00am 1.2 -1.8 0.9 98 0.1 ESE 6 6 3 3 1024.7 1025.0 1.2
19/03:30am 1.2 -2.0 0.9 98 0.1 E 7 9 4 5 1024.7 1025.0 1.2
19/03:00am 1.8 0.0 1.5 98 0.1 CALM 0 0 0 0 1024.7 1025.0 1.2
19/02:30am 2.0 0.3 1.7 98 0.1 CALM 0 0 0 0 1024.6 1024.9 1.2
19/02:00am 1.8 0.0 1.4 97 0.2 CALM 0 0 0 0 1024.5 1024.8 1.2
19/01:30am 2.0 -0.1 1.6 97 0.2 SW 2 6 1 3 1024.2 1024.6 1.0
19/01:00am 1.5 -1.7 0.8 95 0.3 SSW 7 9 4 5 1024.1 1024.5 1.0
19/12:30am 2.4 -0.1 1.7 95 0.3 S 4 7 2 4 1024.2 1024.6 1.0
19/12:00am 3.5 0.6 2.8 95 0.3 SE 7 9 4 5 1024.4 1024.7 1.0
 
Date/Time
EST
Temp
°C
App
Temp
°C
Dew
Point
°C
Rel
Hum
%
Delta-T
°C
Wind Press
QNH
hPa
Press
MSL
hPa
Rain since
9am
mm
Dir  Spd
km/h
Gust
km/h
Spd
kts
Gust
kts
18/11:30pm 3.0 0.2 2.1 94 0.4 SSW 6 9 3 5 1024.5 1024.8 1.0
18/11:00pm 3.1 -0.3 1.6 90 0.6 SW 9 9 5 5 1024.2 1024.6 1.0
18/10:30pm 4.7 1.4 2.4 85 0.9 S 9 9 5 5 1024.1 1024.5 1.0
18/10:00pm 5.3 2.5 3.0 85 1.0 S 7 13 4 7 1023.8 1024.2 1.0
18/09:30pm 5.2 2.4 3.1 86 0.9 SSE 7 9 4 5 1023.7 1024.1 1.0
18/09:00pm 5.3 2.6 2.8 84 1.0 SSE 6 11 3 6 1023.6 1024.0 1.0
18/08:30pm 5.2 2.9 2.9 85 1.0 SSW 4 6 2 3 1023.4 1023.8 1.0
18/08:00pm 5.7 3.4 2.9 82 1.2 SW 4 7 2 4 1023.2 1023.6 1.0
18/07:30pm 5.1 1.9 3.1 87 0.8 SW 9 11 5 6 1022.9 1023.3 1.0
18/07:00pm 6.2 3.5 3.9 85 1.0 W 7 9 4 5 1022.7 1023.1 1.0
18/06:30pm 7.0 4.9 4.1 82 1.3 WSW 4 15 2 8 1022.6 1023.0 1.0
18/06:00pm 7.4 4.3 3.5 76 1.7 SSW 9 15 5 8 1022.3 1022.7 0.8
18/05:30pm 7.6 4.9 3.6 76 1.7 WSW 7 11 4 6 1021.7 1022.1 0.8
18/05:00pm 8.3 5.2 3.4 71 2.1 SW 9 13 5 7 1021.6 1022.0 0.8
18/04:30pm 8.7 4.1 3.7 71 2.2 SSW 17 24 9 13 1021.4 1021.8 0.8
18/04:00pm 9.5 5.5 2.8 63 2.9 WSW 13 19 7 10 1021.0 1021.3 0.8
18/03:30pm 9.8 5.8 3.1 63 2.9 SW 13 24 7 13 1020.6 1020.9 0.8
18/03:00pm 10.0 6.1 3.5 64 2.9 SW 13 28 7 15 1020.3 1020.6 0.8
18/02:30pm 9.6 5.1 4.2 69 2.4 WSW 17 24 9 13 1020.1 1020.4 0.8
18/02:00pm 9.2 5.4 4.0 70 2.3 SW 13 20 7 11 1020.2 1020.5 0.8
18/01:30pm 10.4 6.4 4.8 68 2.6 SSW 15 22 8 12 1020.0 1020.3 0.8
18/01:00pm 9.8 5.4 4.8 71 2.3 SSW 17 24 9 13 1020.0 1020.3 0.8
18/12:30pm 9.0 5.1 5.2 77 1.7 WSW 15 24 8 13 1020.0 1020.3 0.8
18/12:00pm 7.9 3.1 5.5 85 1.1 WSW 20 32 11 17 1020.1 1020.4 0.8
18/11:30am 10.3 5.6 5.3 71 2.3 WSW 19 30 10 16 1019.7 1020.1 0.0
18/11:00am 9.8 6.2 4.8 71 2.3 W 13 20 7 11 1019.4 1019.8 0.0
18/10:30am 10.0 6.9 5.4 73 2.1 W 11 17 6 9 1019.1 1019.5 0.0
18/10:00am 9.5 5.6 5.3 75 1.9 W 15 24 8 13 1018.7 1019.1 0.0
18/09:30am 9.2 5.4 5.8 79 1.6 W 15 26 8 14 1018.2 1018.6 0.0
18/09:00am 8.2 4.8 6.0 86 1.0 W 13 24 7 13 1017.9 1018.3 2.0
18/08:30am 7.5 5.1 7.2 98 0.1 NW 9 13 5 7 1017.6 1017.9 2.0
18/08:00am 7.5 5.5 7.2 98 0.1 N 7 9 4 5 1017.1 1017.4 2.0
18/07:30am 7.6 4.9 7.3 98 0.1 NW 11 15 6 8 1016.9 1017.2 2.0
18/07:00am 7.7 4.7 7.6 99 0.0 NNW 13 20 7 11 1016.6 1016.9 2.0
18/06:30am 7.7 5.4 7.6 99 0.0 NW 9 13 5 7 1016.3 1016.6 1.8
18/06:00am 7.8 4.0 7.4 97 0.2 NW 17 19 9 10 1016.1 1016.4 1.8
18/05:30am 7.9 3.6 7.0 94 0.4 NW 19 24 10 13 1016.0 1016.3 0.4
18/05:00am 8.3 4.2 6.3 87 0.9 NNW 17 20 9 11 1015.9 1016.2 0.2
18/04:30am 8.8 4.6 5.5 80 1.5 NNW 17 22 9 12 1015.9 1016.2 0.0
18/04:00am 8.9 5.0 5.5 79 1.6 NNW 15 22 8 12 1016.0 1016.3 0.0
18/03:30am 9.2 5.0 5.6 78 1.7 NNW 17 24 9 13 1016.2 1016.5 0.0
18/03:00am 9.5 5.3 5.5 76 1.8 NNW 17 26 9 14 1016.3 1016.6 0.0
18/02:30am 9.7 5.5 5.9 77 1.8 NNW 17 22 9 12 1016.6 1016.9 0.0
18/02:00am 9.6 5.8 6.0 78 1.7 N 15 20 8 11 1016.5 1016.8 0.0
18/01:30am 9.7 6.0 6.1 78 1.7 N 15 22 8 12 1016.9 1017.2 0.0
18/01:00am 9.9 6.2 6.3 78 1.7 N 15 22 8 12 1017.1 1017.4 0.0
18/12:30am 9.9 5.8 6.1 77 1.8 N 17 26 9 14 1017.3 1017.6 0.0
18/12:00am 10.0 6.3 6.2 77 1.8 NNW 15 22 8 12 1017.5 1017.8 0.0
 
Date/Time
EST
Temp
°C
App
Temp
°C
Dew
Point
°C
Rel
Hum
%
Delta-T
°C
Wind Press
QNH
hPa
Press
MSL
hPa
Rain since
9am
mm
Dir  Spd
km/h
Gust
km/h
Spd
kts
Gust
kts
17/11:30pm 10.2 5.7 6.2 76 1.9 N 19 28 10 15 1017.7 1018.1 0.0
17/11:00pm 10.5 5.8 6.1 74 2.1 N 20 30 11 16 1017.6 1017.9 0.0
17/10:30pm 10.5 6.4 6.3 75 2.0 N 17 22 9 12 1017.8 1018.2 0.0

Other formats

Comma delimited format used in spreadsheet applications
http://www.bom.gov.au/fwo/IDV60801/IDV60801.94836.axf

JavaScript Object Notation format (JSON) in row-major order
http://www.bom.gov.au/fwo/IDV60801/IDV60801.94836.json

Data quality

Most of these data are generated automatically and are frequently updated. Quality checks on data are not normally performed. It is possible for incorrect values to appear. Refer to information at About Latest Weather Observations and please check the disclaimer before using these data.